createdAt,value
2017-04-07T08:43:39.147Z,19.95
2017-04-07T08:44:38.878Z,15.94
2017-04-07T08:45:40.629Z,17.43
2017-04-07T08:46:40.987Z,20.15
2017-04-07T08:47:40.359Z,16.37
2017-04-07T08:48:42.046Z,20.28
2017-04-07T08:49:40.378Z,19.22
2017-04-07T08:50:43.324Z,17.23
2017-04-07T08:51:42.458Z,14.62
2017-04-07T08:52:45.302Z,25.50
2017-04-07T08:53:44.239Z,17.63
2017-04-07T08:54:43.400Z,22.72
2017-04-07T08:55:43.125Z,22.60
2017-04-07T08:56:43.591Z,21.78
2017-04-07T08:57:42.728Z,22.17
2017-04-07T08:58:43.321Z,17.27
2017-04-07T08:59:42.257Z,16.15
2017-04-07T09:00:41.558Z,22.40
2017-04-07T09:01:42.857Z,19.87
2017-04-07T09:02:41.207Z,21.85
2017-04-07T09:03:39.875Z,20.57
2017-04-07T09:04:40.622Z,21.62
2017-04-07T09:05:39.282Z,20.33
2017-04-07T09:16:23.834Z,15.73
2017-04-07T09:17:22.267Z,23.32
2017-04-07T09:18:20.651Z,19.42
2017-04-07T09:29:05.626Z,19.02
2017-04-07T09:30:06.159Z,15.75
2017-04-07T09:31:05.640Z,20.42
2017-04-07T09:32:06.067Z,16.93
2017-04-07T09:33:07.118Z,21.30
2017-04-07T09:34:07.286Z,22.12
2017-04-07T09:35:07.707Z,20.65
2017-04-07T09:36:07.577Z,16.07
2017-04-07T09:37:07.097Z,21.87
2017-04-07T09:38:06.398Z,25.23
2017-04-07T09:39:06.320Z,19.52
2017-04-07T09:40:06.145Z,22.52
2017-04-07T09:41:04.488Z,22.73
2017-04-07T09:42:02.993Z,19.83
2017-04-07T09:43:01.384Z,23.33
2017-04-07T09:44:01.138Z,19.38
2017-04-07T09:44:59.557Z,29.62
2017-04-07T09:45:59.234Z,16.27
2017-04-07T09:46:58.099Z,19.72
2017-04-07T09:47:57.864Z,18.90
2017-04-07T09:48:57.784Z,19.78
2017-04-07T09:49:58.505Z,19.78
2017-04-07T09:50:58.852Z,22.52
2017-04-07T09:51:58.223Z,22.02
2017-04-07T09:53:01.026Z,21.63
2017-04-07T09:53:59.653Z,23.75
2017-04-07T09:55:01.332Z,19.10
2017-04-07T09:56:03.026Z,20.40
2017-04-07T09:57:01.978Z,25.60
2017-04-07T09:58:00.807Z,17.50
2017-04-07T09:59:00.400Z,19.30
2017-04-07T10:00:01.602Z,22.17
2017-04-07T10:01:00.673Z,24.67
2017-04-07T10:01:59.677Z,18.53
2017-04-07T10:02:58.763Z,23.45
2017-04-07T10:03:57.669Z,19.53
2017-04-07T10:04:57.513Z,26.87
2017-04-07T10:15:42.577Z,12.88
2017-04-07T10:16:42.119Z,18.37
2017-04-07T10:17:42.345Z,14.15
2017-04-07T10:18:40.732Z,20.38
2017-04-07T10:19:40.752Z,17.92
2017-04-07T10:20:40.552Z,18.52
2017-04-07T10:21:40.244Z,25.63
2017-04-07T10:22:39.090Z,22.78
2017-04-07T10:23:41.058Z,22.22
2017-04-07T10:24:42.522Z,22.10
2017-04-07T10:25:41.500Z,18.48
2017-04-07T10:26:41.183Z,23.33
2017-04-07T10:27:40.359Z,23.87
2017-04-07T10:28:40.115Z,19.23
2017-04-07T10:29:42.010Z,21.77
2017-04-07T10:30:40.299Z,22.03
2017-04-07T10:31:40.383Z,25.27
2017-04-07T10:32:39.697Z,18.48
2017-04-07T10:33:38.598Z,13.80
2017-04-07T10:34:37.732Z,17.83
2017-04-07T10:35:37.000Z,18.12
2017-04-07T10:36:37.219Z,22.88
2017-04-07T10:37:36.077Z,29.75
2017-04-07T10:38:34.603Z,15.88
2017-04-07T10:39:32.941Z,19.87
2017-04-07T10:40:33.916Z,18.38
2017-04-07T10:41:32.772Z,17.38
2017-04-07T10:42:31.781Z,23.15
2017-04-07T10:43:30.304Z,21.82
2017-04-07T10:44:29.855Z,15.72
2017-04-07T10:45:29.873Z,19.82
2017-04-07T10:46:28.168Z,23.32
2017-04-07T10:47:27.406Z,22.30
2017-04-07T10:48:26.512Z,30.15
2017-04-07T10:49:27.145Z,25.42
2017-04-07T10:50:27.416Z,29.17
2017-04-07T10:51:26.460Z,25.13
2017-04-07T10:52:24.926Z,20.22
2017-04-07T10:53:23.726Z,21.20
2017-04-07T10:54:22.750Z,18.88
2017-04-07T10:55:25.508Z,27.82
2017-04-07T10:56:23.793Z,26.00
2017-04-07T10:57:23.100Z,22.08
2017-04-07T10:58:22.893Z,17.37
2017-04-07T10:59:21.192Z,20.62
2017-04-07T11:00:22.575Z,25.93
2017-04-07T11:01:21.230Z,17.53
2017-04-07T11:02:26.125Z,18.35
2017-04-07T11:03:24.966Z,20.22
2017-04-07T11:04:24.912Z,20.72
2017-04-07T11:05:25.867Z,16.62
2017-04-07T11:06:25.751Z,17.65
2017-04-07T11:07:24.350Z,20.22
2017-04-07T11:08:24.236Z,18.83
2017-04-07T11:09:23.126Z,19.20
2017-04-07T11:10:22.979Z,18.18
2017-04-07T11:11:21.987Z,18.60
2017-04-07T11:12:21.084Z,20.28
2017-04-07T11:13:21.175Z,16.32
2017-04-07T11:14:19.611Z,20.27
2017-04-07T11:15:18.675Z,21.48
2017-04-07T11:16:18.450Z,17.02
2017-04-07T11:17:18.499Z,21.25
2017-04-07T11:18:17.795Z,19.50
2017-04-07T11:19:16.476Z,19.05
2017-04-07T11:20:16.259Z,23.80
2017-04-07T11:21:16.086Z,21.57
2017-04-07T11:22:15.459Z,22.35
2017-04-07T11:23:14.601Z,21.87
2017-04-07T11:24:14.155Z,18.27
2017-04-07T11:25:13.652Z,23.45
2017-04-07T11:26:13.288Z,24.17
2017-04-07T11:27:13.056Z,17.47
2017-04-07T11:28:13.264Z,21.60
2017-04-07T11:29:13.604Z,21.58
2017-04-07T11:30:11.987Z,20.35
2017-04-07T11:31:13.937Z,18.60
2017-04-07T11:32:13.261Z,18.82
2017-04-07T11:33:12.373Z,22.92
2017-04-07T11:34:12.440Z,20.73
2017-04-07T11:35:14.935Z,21.75
2017-04-07T11:36:14.188Z,23.70
2017-04-07T11:37:12.542Z,22.45
2017-04-07T11:38:12.258Z,18.45
2017-04-07T11:39:12.920Z,21.12
2017-04-07T11:40:12.565Z,24.90
2017-04-07T11:41:10.918Z,21.17
2017-04-07T11:42:10.587Z,24.23
2017-04-07T11:43:09.560Z,20.70
2017-04-07T11:44:08.142Z,16.78
2017-04-07T11:54:56.664Z,20.87
2017-04-07T11:55:55.688Z,16.84
2017-04-07T11:56:54.021Z,21.27
2017-04-07T11:57:52.832Z,16.59
2017-04-07T11:58:52.380Z,15.64
2017-04-07T12:00:59.554Z,20.00
2017-04-07T12:01:58.477Z,20.40
2017-04-07T12:02:58.040Z,24.51
2017-04-07T12:03:57.290Z,16.91
2017-04-07T12:04:58.728Z,17.58
2017-04-07T12:05:59.313Z,20.20
2017-04-07T12:06:58.950Z,13.63
2017-04-07T12:17:42.602Z,16.67
2017-04-07T12:18:42.070Z,19.19
2017-04-07T12:19:40.822Z,19.56
2017-04-07T12:20:41.412Z,18.94
2017-04-07T12:21:40.450Z,21.17
2017-04-07T12:22:40.480Z,17.44
2017-04-07T12:23:38.964Z,16.26
2017-04-07T12:25:50.643Z,18.40
2017-04-07T12:26:49.675Z,15.07
2017-04-07T12:27:55.986Z,22.23
2017-04-07T12:28:59.310Z,20.66
2017-04-07T12:29:59.160Z,19.41
2017-04-07T12:31:01.005Z,20.53
2017-04-07T12:32:03.966Z,19.56
2017-04-07T12:33:03.102Z,23.86
2017-04-07T12:34:07.989Z,18.19
2017-04-07T12:35:07.349Z,18.87
2017-04-07T12:36:07.296Z,16.44
2017-04-07T12:37:06.476Z,19.74
2017-04-07T12:38:05.558Z,16.91
2017-04-07T12:39:07.417Z,11.96
2017-04-07T12:40:10.945Z,19.37
2017-04-07T12:41:09.435Z,17.23
2017-04-07T12:42:08.683Z,12.37
2017-04-07T12:43:08.354Z,21.03
2017-04-07T12:44:07.897Z,17.77
2017-04-07T12:45:07.559Z,14.86
2017-04-07T12:46:14.570Z,15.46
2017-04-07T12:47:13.421Z,21.63
2017-04-07T12:48:12.093Z,19.67
2017-04-07T12:49:11.399Z,15.99
2017-04-07T12:50:10.634Z,13.14
2017-04-07T12:51:10.613Z,12.97
2017-04-07T12:52:09.878Z,15.60
2017-04-07T12:53:09.698Z,17.60
2017-04-07T12:54:09.057Z,12.09
2017-04-07T13:04:56.008Z,11.67
2017-04-07T13:05:54.385Z,15.34
2017-04-07T13:06:54.425Z,14.54
2017-04-07T13:07:57.037Z,12.30
2017-04-07T13:08:56.855Z,15.53
2017-04-07T13:09:57.217Z,16.06
2017-04-07T13:10:56.700Z,11.47
2017-04-07T13:11:56.943Z,12.76
2017-04-07T13:12:55.207Z,14.49
2017-04-07T13:13:55.547Z,14.03
2017-04-07T13:14:54.623Z,14.04
2017-04-07T13:15:52.929Z,18.44
2017-04-07T13:16:53.468Z,15.13
2017-04-07T13:17:52.929Z,15.03
2017-04-07T13:18:52.791Z,14.41
2017-04-07T13:19:52.159Z,17.07
2017-04-07T13:20:52.078Z,16.64
2017-04-07T13:21:52.172Z,17.61
2017-04-07T13:22:53.194Z,18.81
2017-04-07T13:23:52.501Z,18.57
2017-04-07T13:24:53.810Z,19.36
2017-04-07T13:25:55.452Z,13.84
2017-04-07T13:26:55.116Z,10.80
2017-04-07T13:27:54.003Z,18.37
2017-04-07T13:28:52.869Z,16.34
2017-04-07T13:29:51.588Z,17.34
2017-04-07T13:30:51.463Z,13.93
2017-04-07T13:31:50.948Z,15.33
2017-04-07T13:32:50.175Z,15.83
2017-04-07T13:33:49.411Z,16.57
2017-04-07T13:34:48.321Z,15.36
2017-04-07T13:35:48.325Z,17.33
2017-04-07T13:36:47.635Z,10.63
2017-04-07T13:37:47.123Z,15.07
2017-04-07T13:38:46.654Z,14.73
2017-04-07T13:39:45.778Z,13.96
2017-04-07T13:40:44.163Z,18.24
2017-04-07T13:41:43.731Z,20.07
2017-04-07T13:42:42.687Z,12.36
2017-04-07T13:43:42.870Z,14.53
2017-04-07T13:54:29.841Z,16.74
2017-04-07T13:55:30.300Z,19.44
2017-04-07T13:56:29.458Z,14.43
2017-04-07T13:57:29.270Z,11.21
2017-04-07T13:58:27.838Z,16.83
2017-04-07T13:59:26.277Z,16.86
2017-04-07T14:00:25.804Z,16.67
2017-04-07T14:01:25.061Z,19.66
2017-04-07T14:02:26.662Z,12.69
2017-04-07T14:03:27.264Z,15.59
2017-04-07T14:04:27.102Z,15.64
2017-04-07T14:05:29.912Z,21.96
2017-04-07T14:06:29.421Z,17.79
2017-04-07T14:07:30.699Z,19.10
2017-04-07T14:08:30.649Z,21.53
2017-04-07T14:09:29.030Z,17.60
2017-04-07T14:10:29.718Z,29.77
2017-04-07T14:11:30.627Z,21.76
2017-04-07T14:12:32.348Z,24.44
2017-04-07T14:13:31.982Z,17.70
2017-04-07T14:14:30.955Z,16.53
2017-04-07T14:15:30.867Z,15.84
2017-04-07T14:16:31.050Z,19.37
2017-04-07T14:17:29.478Z,16.61
2017-04-07T14:18:27.745Z,18.29
2017-04-07T14:19:27.775Z,18.34
2017-04-07T14:20:26.838Z,28.87
2017-04-07T14:21:27.500Z,17.23
2017-04-07T14:22:28.266Z,26.07
2017-04-07T14:23:27.512Z,19.40
2017-04-07T14:24:26.195Z,17.17
2017-04-07T14:25:24.604Z,19.64
2017-04-07T14:26:23.849Z,16.76
2017-04-07T14:27:26.923Z,22.49
2017-04-07T14:28:25.339Z,21.40
2017-04-07T14:29:25.371Z,23.63
2017-04-07T14:30:25.403Z,22.80
2017-04-07T14:31:23.987Z,18.10
2017-04-07T14:32:22.551Z,23.01
2017-04-07T14:33:21.003Z,23.24
2017-04-07T14:34:20.143Z,21.37
2017-04-07T14:35:19.456Z,22.66
2017-04-07T14:36:20.188Z,25.46
2017-04-07T14:37:20.516Z,18.73
2017-04-07T14:38:19.744Z,26.89
2017-04-07T14:39:18.720Z,21.10
2017-04-07T14:40:17.708Z,20.84
2017-04-07T14:41:16.923Z,21.67
2017-04-07T14:42:17.185Z,23.97
2017-04-07T14:43:18.306Z,24.03
2017-04-07T14:44:17.951Z,21.79
2017-04-07T14:45:17.573Z,20.74
2017-04-07T14:46:15.907Z,19.60
2017-04-07T14:47:16.347Z,21.66
2017-04-07T14:48:15.639Z,26.54
2017-04-07T14:49:14.576Z,22.87
2017-04-07T14:50:13.656Z,23.61
2017-04-07T14:51:13.518Z,23.64
2017-04-07T14:52:13.225Z,23.06
2017-04-07T14:53:12.162Z,20.70
2017-04-07T14:54:10.631Z,26.86
2017-04-07T14:55:09.322Z,21.71
2017-04-07T14:56:10.051Z,22.21
2017-04-07T14:57:08.355Z,25.51
2017-04-07T14:58:08.150Z,25.13
2017-04-07T14:59:07.133Z,23.01
2017-04-07T15:00:05.729Z,21.60
2017-04-07T15:01:07.048Z,23.53
2017-04-07T15:02:06.300Z,27.40
2017-04-07T15:03:06.853Z,1021.77
2017-04-07T15:04:06.974Z,226.33
2017-04-07T15:05:07.027Z,95.75
2017-04-07T15:06:07.459Z,73.70
2017-04-07T15:07:07.451Z,260.10
2017-04-07T15:08:06.821Z,39.22
2017-04-07T15:09:07.798Z,54.22
2017-04-07T15:10:07.852Z,185.95
2017-04-07T15:11:07.805Z,55.62
2017-04-07T15:12:08.074Z,43.38
2017-04-07T15:13:08.713Z,35.00
2017-04-07T15:23:08.948Z,28.74
2017-04-07T15:24:09.978Z,26.35
2017-04-07T15:25:12.164Z,20.85
2017-04-07T15:26:11.708Z,25.17
2017-04-07T15:27:10.650Z,25.66
2017-04-07T15:28:11.103Z,22.71
2017-04-07T15:29:11.290Z,23.64
2017-04-07T15:30:11.643Z,23.20
2017-04-07T15:41:21.153Z,31.47
2017-04-07T15:42:20.256Z,23.64
2017-04-07T15:43:20.358Z,22.15
2017-04-07T15:44:19.393Z,28.70
2017-04-07T15:45:22.552Z,26.51
2017-04-07T15:46:27.055Z,23.86
2017-04-07T15:47:28.817Z,21.90
2017-04-07T15:48:27.927Z,22.33
2017-04-07T15:49:27.321Z,25.66
2017-04-07T15:50:30.745Z,28.06
2017-04-07T15:51:31.943Z,26.71
2017-04-07T15:52:31.692Z,27.59
2017-04-07T15:53:31.134Z,29.30
2017-04-07T15:54:30.451Z,26.31
2017-04-07T15:55:29.729Z,29.61
2017-04-07T15:56:28.676Z,43.31
2017-04-07T15:57:30.016Z,36.69
2017-04-07T15:58:30.737Z,35.03
2017-04-07T15:59:30.454Z,33.49
2017-04-07T16:10:14.685Z,33.83
2017-04-07T16:11:16.268Z,34.42
2017-04-07T16:12:15.811Z,44.63
2017-04-07T16:13:15.352Z,37.40
2017-04-07T16:27:17.792Z,38.80
2017-04-07T16:28:16.589Z,38.95
2017-04-07T16:29:15.966Z,37.77
2017-04-07T16:30:17.041Z,33.80
2017-04-07T16:31:17.607Z,37.18
2017-04-07T16:32:17.879Z,36.05
2017-04-07T16:33:18.866Z,34.08
2017-04-07T16:34:18.299Z,38.45
2017-04-07T16:35:17.470Z,32.07
2017-04-07T16:36:19.283Z,38.63
2017-04-07T16:37:18.277Z,34.18
2017-04-07T16:38:18.433Z,32.67
2017-04-07T16:39:18.123Z,35.00
2017-04-07T16:40:19.321Z,38.62
2017-04-07T16:41:21.123Z,36.28
2017-04-07T16:42:22.741Z,39.30
2017-04-07T16:43:23.871Z,31.13
2017-04-07T16:44:25.848Z,39.08
2017-04-07T16:45:29.737Z,38.57
2017-04-07T16:46:29.708Z,40.35
2017-04-07T16:47:34.104Z,38.60
2017-04-07T16:48:32.522Z,37.17
2017-04-07T17:03:10.725Z,32.13
2017-04-07T17:04:11.078Z,44.22
2017-04-07T17:05:10.283Z,56.10
2017-04-07T17:06:11.456Z,41.75
2017-04-07T17:07:12.027Z,60.90
2017-04-07T17:08:12.460Z,49.07
2017-04-07T17:09:12.135Z,41.08
2017-04-07T17:10:12.315Z,43.25
2017-04-07T17:11:12.750Z,43.82
2017-04-07T17:12:11.908Z,41.32
2017-04-07T17:13:17.345Z,35.47
2017-04-07T17:14:19.912Z,43.93
2017-04-07T17:15:19.672Z,41.35
2017-04-07T17:16:20.640Z,49.67
2017-04-07T17:17:20.364Z,55.02
2017-04-07T17:18:21.360Z,47.05
2017-04-07T17:19:21.411Z,57.03
2017-04-07T17:20:21.960Z,56.55
2017-04-07T17:21:20.809Z,45.90
2017-04-07T17:22:20.599Z,43.70
2017-04-07T17:23:21.838Z,44.52
2017-04-07T17:24:22.481Z,61.47
2017-04-07T17:25:21.300Z,46.12
2017-04-07T17:26:20.547Z,41.32
2017-04-07T17:27:20.985Z,55.10
2017-04-07T17:28:25.016Z,47.33
2017-04-07T17:29:23.888Z,43.23
2017-04-07T17:30:26.329Z,42.83
2017-04-07T17:31:28.149Z,49.70
2017-04-07T17:32:28.349Z,43.60
2017-04-07T17:33:26.879Z,43.08
2017-04-07T17:34:26.486Z,43.03
2017-04-07T17:35:25.927Z,50.87
2017-04-07T17:36:25.733Z,49.57
2017-04-07T17:37:25.158Z,50.77
2017-04-07T17:38:26.165Z,42.08
2017-04-07T17:39:25.558Z,41.52
2017-04-07T17:40:25.168Z,51.45
2017-04-07T17:51:10.487Z,49.63
2017-04-07T17:52:11.894Z,50.85
2017-04-07T17:53:12.675Z,42.98
2017-04-07T17:54:13.121Z,46.70
2017-04-07T17:55:12.473Z,50.47
2017-04-07T17:56:12.278Z,53.73
2017-04-07T17:57:12.869Z,44.12
2017-04-07T17:58:15.679Z,41.62
2017-04-07T17:59:14.422Z,48.12
2017-04-07T18:00:13.803Z,45.20
2017-04-07T18:01:13.082Z,47.05
2017-04-07T18:02:12.753Z,43.93
2017-04-07T18:03:12.147Z,42.90
2017-04-07T18:04:14.453Z,40.75
2017-04-07T18:05:13.662Z,42.27
2017-04-07T18:06:13.615Z,48.23
2017-04-07T18:07:14.549Z,46.07
2017-04-07T18:08:15.249Z,39.82
2017-04-07T18:09:15.582Z,41.65
2017-04-07T18:10:15.222Z,43.80
2017-04-07T18:11:15.194Z,40.68
2017-04-07T18:12:18.194Z,42.50
2017-04-07T18:13:20.586Z,45.50
2017-04-07T18:14:21.207Z,47.67
2017-04-07T18:15:20.430Z,52.20
2017-04-07T18:16:21.590Z,48.87
2017-04-07T18:17:22.639Z,173.55
2017-04-07T18:18:21.711Z,430.15
2017-04-07T18:19:21.173Z,1408.90
2017-04-07T18:20:21.074Z,668.52
2017-04-07T18:21:20.749Z,687.75
2017-04-07T18:22:22.611Z,760.65
2017-04-07T18:23:22.718Z,647.22
2017-04-07T18:24:21.631Z,333.67
2017-04-07T18:38:20.698Z,294.95
2017-04-07T18:39:20.858Z,47.60
2017-04-07T18:40:20.342Z,41.32
2017-04-07T18:41:19.617Z,49.23
2017-04-07T18:42:21.397Z,52.80
2017-04-07T18:43:20.808Z,50.08
2017-04-07T18:44:21.287Z,45.02
2017-04-07T18:45:20.225Z,48.47
2017-04-07T18:46:21.251Z,44.62
2017-04-07T18:47:20.062Z,50.43
2017-04-07T18:48:21.171Z,41.47
2017-04-07T18:49:21.457Z,50.32
2017-04-07T18:50:21.991Z,43.67
2017-04-07T18:51:20.741Z,43.38
2017-04-07T18:52:21.294Z,47.60
2017-04-07T18:53:22.122Z,45.32
2017-04-07T18:54:21.162Z,44.75
2017-04-07T18:55:20.803Z,43.77
2017-04-07T18:56:20.397Z,47.27
2017-04-07T18:57:20.937Z,44.50
2017-04-07T18:59:30.389Z,45.47
2017-04-07T19:00:30.055Z,39.97
2017-04-07T19:01:31.814Z,44.17
2017-04-07T19:02:31.735Z,44.53
2017-04-07T19:03:31.909Z,50.30
2017-04-07T19:04:33.882Z,45.78
2017-04-07T19:05:33.842Z,49.15
2017-04-07T19:06:33.743Z,44.60
2017-04-07T19:07:33.964Z,45.23
2017-04-07T19:08:33.770Z,47.93
2017-04-07T19:09:33.668Z,42.20
2017-04-07T19:10:41.666Z,46.00
2017-04-07T19:11:41.332Z,41.98
2017-04-07T19:13:25.145Z,170.75
2017-04-07T19:14:26.937Z,79.72
2017-04-07T19:15:27.030Z,55.40
2017-04-07T19:16:26.904Z,54.48
2017-04-07T19:17:30.069Z,53.50
2017-04-07T19:18:30.825Z,41.58
2017-04-07T19:19:31.291Z,127.90
2017-04-07T19:20:32.515Z,749.30
2017-04-07T19:21:32.309Z,280.82
2017-04-07T19:22:34.307Z,373.20
2017-04-07T19:23:35.492Z,440.83
2017-04-07T19:24:38.302Z,208.90
2017-04-07T19:25:37.963Z,274.87
2017-04-07T19:36:22.853Z,51.78
2017-04-07T19:37:22.335Z,53.18
2017-04-07T19:38:21.489Z,50.50
2017-04-07T19:39:21.533Z,52.33
2017-04-07T19:40:23.032Z,55.18
2017-04-07T19:41:24.934Z,53.73
2017-04-07T19:42:26.525Z,56.78
2017-04-07T19:43:25.559Z,45.08
2017-04-07T19:44:25.255Z,52.15
2017-04-07T19:45:27.760Z,51.05
2017-04-07T19:46:27.033Z,50.88
2017-04-07T19:47:27.141Z,53.77
2017-04-07T19:48:28.288Z,52.35
2017-04-07T19:49:29.566Z,50.45
2017-04-07T19:50:27.851Z,48.95
2017-04-07T19:51:27.824Z,61.05
2017-04-07T19:52:26.357Z,47.62
2017-04-07T19:53:29.019Z,49.93
2017-04-07T19:54:28.402Z,57.98
2017-04-07T19:55:28.210Z,55.73
2017-04-07T19:56:28.124Z,61.42
2017-04-07T19:57:29.017Z,58.10
2017-04-07T19:58:28.882Z,55.43
2017-04-07T19:59:29.849Z,55.27
2017-04-07T20:00:28.303Z,58.07
2017-04-07T20:01:28.940Z,57.43
2017-04-07T20:02:29.596Z,58.40
2017-04-07T20:03:28.979Z,65.82
2017-04-07T20:04:48.725Z,60.82
2017-04-07T20:05:48.081Z,57.50
2017-04-07T20:06:48.198Z,57.45
2017-04-07T20:07:47.492Z,61.07
2017-04-07T20:08:46.310Z,56.02
2017-04-07T20:09:45.544Z,72.02
2017-04-07T20:10:44.784Z,79.90
2017-04-07T20:11:47.896Z,664.83
2017-04-07T20:12:46.683Z,752.77
2017-04-07T20:13:46.194Z,722.87
2017-04-07T20:14:46.052Z,1088.93
2017-04-07T20:15:44.702Z,772.77
2017-04-07T20:16:43.399Z,713.38
2017-04-07T20:17:44.909Z,508.38
2017-04-07T20:18:44.670Z,333.58
2017-04-07T20:19:45.087Z,181.47
2017-04-07T20:20:45.296Z,131.92
2017-04-07T20:21:44.886Z,91.85
2017-04-07T20:32:29.676Z,52.95
2017-04-07T20:33:29.228Z,263.17
2017-04-07T20:34:27.570Z,85.52
2017-04-07T20:35:30.312Z,86.77
2017-04-07T20:36:31.132Z,71.02
2017-04-07T20:37:32.540Z,71.20
2017-04-07T20:38:34.312Z,67.30
2017-04-07T20:39:39.783Z,60.95
2017-04-07T20:40:38.138Z,71.45
2017-04-07T20:41:37.169Z,67.35
2017-04-07T20:42:36.770Z,67.60
2017-04-07T20:43:39.653Z,61.95
2017-04-07T20:44:43.981Z,63.68
2017-04-07T20:45:44.271Z,70.10
2017-04-07T20:46:46.628Z,64.83
2017-04-07T20:47:48.803Z,70.38
2017-04-07T20:48:53.951Z,61.47
2017-04-07T20:49:53.059Z,68.37
2017-04-07T20:50:56.376Z,68.35
2017-04-07T20:51:58.581Z,66.57
2017-04-07T20:52:57.291Z,66.42
2017-04-07T20:54:00.038Z,67.32
2017-04-07T20:55:01.868Z,62.78
2017-04-07T20:56:01.334Z,65.37
2017-04-07T20:57:04.571Z,70.25
2017-04-07T20:58:05.422Z,74.80
2017-04-07T20:59:07.454Z,73.32
2017-04-07T21:00:09.871Z,63.95
2017-04-07T21:01:10.006Z,62.33
2017-04-07T21:02:11.481Z,65.92
2017-04-07T21:03:14.193Z,66.37
2017-04-07T21:04:18.195Z,66.47
2017-04-07T21:05:22.734Z,71.37
2017-04-07T21:06:21.729Z,65.78
2017-04-07T21:07:20.803Z,64.47
2017-04-07T21:08:20.098Z,72.50
2017-04-07T21:09:19.256Z,65.65
2017-04-07T21:10:18.621Z,71.65
2017-04-07T21:11:18.955Z,68.78
2017-04-07T21:12:18.308Z,66.03
2017-04-07T21:23:45.448Z,73.33
2017-04-07T21:24:44.774Z,80.42
2017-04-07T21:25:44.639Z,80.32
2017-04-07T21:26:46.544Z,67.82
2017-04-07T21:27:51.995Z,80.25
2017-04-07T21:28:50.382Z,70.15
2017-04-07T21:29:52.409Z,74.90
2017-04-07T21:30:54.075Z,71.18
2017-04-07T21:31:53.564Z,75.13
2017-04-07T21:32:52.894Z,68.93
2017-04-07T21:33:53.554Z,67.48
2017-04-07T21:34:53.446Z,81.52
2017-04-07T21:35:51.691Z,68.07
2017-04-07T21:36:51.758Z,73.15
2017-04-07T21:37:50.948Z,72.50
2017-04-07T21:38:50.039Z,71.07
2017-04-07T21:39:49.128Z,63.93
2017-04-07T21:40:48.003Z,65.78
2017-04-07T21:41:50.124Z,70.68
2017-04-07T21:42:49.179Z,70.13
2017-04-07T21:43:49.588Z,69.52
2017-04-07T21:45:59.247Z,76.87
2017-04-07T21:47:00.595Z,66.83
2017-04-07T21:48:00.180Z,73.05
2017-04-07T21:48:58.997Z,74.00
2017-04-07T21:49:58.931Z,69.53
2017-04-07T21:51:00.990Z,75.78
2017-04-07T21:51:59.971Z,70.33
2017-04-07T21:52:59.996Z,68.15
2017-04-07T21:54:02.230Z,73.33
2017-04-07T21:55:02.320Z,74.48
2017-04-07T21:56:09.262Z,73.48
2017-04-07T21:57:08.612Z,75.72
2017-04-07T21:58:08.352Z,67.52
2017-04-07T21:59:07.081Z,71.35
2017-04-07T22:00:06.555Z,74.80
2017-04-07T22:01:06.008Z,79.73
2017-04-07T22:02:05.676Z,96.77
2017-04-07T22:03:05.715Z,78.52
2017-04-07T22:04:06.834Z,77.23
2017-04-07T22:05:06.031Z,77.75
2017-04-07T22:06:05.163Z,71.47
2017-04-07T22:07:04.082Z,76.60
2017-04-07T22:08:07.248Z,69.75
2017-04-07T22:09:09.392Z,75.93
2017-04-07T22:10:19.058Z,75.23
2017-04-07T22:11:20.831Z,65.37
2017-04-07T22:12:21.228Z,75.55
2017-04-07T22:13:21.955Z,73.85
2017-04-07T22:14:25.168Z,80.80
2017-04-07T22:15:30.617Z,82.47
2017-04-07T22:16:35.880Z,83.87
2017-04-07T22:17:41.142Z,84.85
2017-04-07T22:18:40.475Z,82.18
2017-04-07T22:19:40.384Z,82.15
2017-04-07T22:20:39.183Z,88.92
2017-04-07T22:21:37.990Z,78.65
2017-04-07T22:22:38.238Z,71.28
2017-04-07T22:23:37.993Z,86.75
2017-04-07T22:24:37.065Z,74.05
2017-04-07T22:25:36.320Z,77.62
2017-04-07T22:26:36.136Z,74.70
2017-04-07T22:27:34.471Z,71.77
2017-04-07T22:28:36.777Z,73.57
2017-04-07T22:29:35.118Z,72.73
2017-04-07T22:30:34.940Z,82.17
2017-04-07T22:31:36.888Z,67.77
2017-04-07T22:32:37.156Z,75.07
2017-04-07T22:33:41.052Z,72.07
2017-04-07T22:34:41.346Z,84.53
2017-04-07T22:35:42.609Z,77.87
2017-04-07T22:36:43.903Z,76.92
2017-04-07T22:37:45.036Z,70.83
2017-04-07T22:38:54.064Z,82.22
2017-04-07T22:40:02.026Z,79.48
2017-04-07T22:41:02.895Z,68.07
2017-04-07T22:42:02.856Z,84.05
2017-04-07T22:43:03.252Z,76.08
2017-04-07T22:44:18.695Z,81.50
2017-04-07T22:45:25.507Z,77.13
2017-04-07T22:46:27.507Z,75.27
2017-04-07T22:47:31.459Z,71.48
2017-04-07T22:48:30.331Z,81.22
2017-04-07T22:49:29.161Z,76.42
2017-04-07T22:50:28.743Z,83.33
2017-04-07T22:51:32.641Z,80.30
2017-04-07T22:52:33.902Z,85.78
2017-04-07T22:53:33.767Z,78.12
2017-04-07T22:54:35.485Z,76.25
2017-04-07T22:55:36.763Z,75.63
2017-04-07T22:56:36.086Z,76.32
2017-04-07T22:57:35.485Z,75.20
2017-04-07T22:58:41.119Z,72.48
2017-04-07T22:59:40.346Z,67.68
2017-04-07T23:00:41.435Z,73.78
2017-04-07T23:01:44.262Z,76.43
2017-04-07T23:02:45.923Z,69.75
2017-04-07T23:03:46.780Z,73.70
2017-04-07T23:04:47.731Z,72.40
2017-04-07T23:05:48.493Z,73.60
2017-04-07T23:06:49.668Z,71.13
2017-04-07T23:07:55.017Z,82.67
2017-04-07T23:09:02.412Z,76.23
2017-04-07T23:10:01.576Z,77.78
2017-04-07T23:11:06.395Z,81.33
2017-04-07T23:12:05.501Z,78.95
2017-04-07T23:13:08.022Z,76.05
2017-04-07T23:14:07.788Z,75.18
2017-04-07T23:15:06.543Z,69.67
2017-04-07T23:16:06.148Z,73.45
2017-04-07T23:17:12.071Z,74.32
2017-04-07T23:18:19.153Z,81.45
2017-04-07T23:19:18.744Z,73.13
2017-04-07T23:20:18.261Z,72.07
2017-04-07T23:21:28.482Z,78.27
2017-04-07T23:22:28.507Z,64.52
2017-04-07T23:23:36.041Z,67.85
2017-04-07T23:24:38.622Z,71.15
2017-04-07T23:25:37.704Z,74.80
2017-04-07T23:26:37.638Z,71.07
2017-04-07T23:27:36.041Z,74.62
2017-04-07T23:28:37.744Z,69.82
2017-04-07T23:29:43.661Z,71.03
2017-04-07T23:30:43.569Z,67.52
2017-04-07T23:31:43.313Z,68.42
2017-04-07T23:32:43.638Z,63.77
2017-04-07T23:33:42.891Z,70.68
2017-04-07T23:34:46.302Z,71.77
2017-04-07T23:35:45.512Z,72.68
2017-04-07T23:36:44.369Z,71.72
2017-04-07T23:37:45.430Z,69.90
2017-04-07T23:38:49.201Z,75.52
2017-04-07T23:39:48.062Z,71.12
2017-04-07T23:40:53.041Z,70.45
2017-04-07T23:41:59.485Z,74.37
2017-04-07T23:43:04.363Z,68.30
2017-04-07T23:44:08.923Z,73.98
2017-04-07T23:45:09.245Z,78.45
2017-04-07T23:46:13.458Z,76.87
2017-04-07T23:47:13.006Z,63.02
2017-04-07T23:48:14.231Z,73.03
2017-04-07T23:49:15.819Z,70.63
2017-04-07T23:50:14.318Z,73.35
2017-04-07T23:51:16.739Z,68.65
2017-04-07T23:52:16.939Z,72.68
2017-04-07T23:53:17.192Z,72.35
2017-04-07T23:54:17.749Z,72.67
2017-04-07T23:55:16.403Z,74.68
2017-04-07T23:56:14.802Z,77.90
2017-04-07T23:57:17.899Z,67.22
2017-04-07T23:58:18.884Z,72.22
2017-04-07T23:59:17.547Z,75.22
